Time;durP1;ratioP1;P1;durP2;ratioP2;P2;SDS_P1;SDS_P2;PMS_P1;PMS_P2;Temp;Humidity;BMP_temperature;BMP_pressure;BME280_temperature;BME280_humidity;BME280_pressure;Samples;Min_cycle;Max_cycle;Signal;HPM_P1;HPM_P2
2023/02/20 00:00:42;;;;;;;4.60;3.70;;;8.20;99.90;;;8.99;95.73;98996.72;5141926;28;20199;-82
2023/02/20 00:03:16;;;;;;;4.75;4.18;;;8.20;99.90;;;9.02;95.26;98986.75;5145445;28;20282;-82
2023/02/20 00:05:49;;;;;;;7.40;4.23;;;8.30;99.90;;;9.02;95.04;98987.66;5144847;28;20223;-82
2023/02/20 00:08:23;;;;;;;7.32;4.32;;;8.30;99.90;;;9.02;94.88;98982.56;5146537;28;20200;-82
2023/02/20 00:10:56;;;;;;;4.37;3.97;;;8.30;99.90;;;9.01;95.20;98990.97;5143923;28;20196;-82
2023/02/20 00:13:30;;;;;;;5.15;4.63;;;8.30;99.90;;;8.97;94.38;98994.03;5142078;28;20304;-83
2023/02/20 00:16:04;;;;;;;7.35;4.20;;;8.30;99.90;;;8.94;94.05;98998.88;5145170;28;20262;-82
2023/02/20 00:18:37;;;;;;;6.70;4.35;;;8.20;99.90;;;8.99;94.55;98989.94;5145159;28;20204;-82
2023/02/20 00:21:10;;;;;;;4.77;4.37;;;8.30;99.90;;;9.06;94.34;98977.69;5144410;28;20577;-81
2023/02/20 00:23:43;;;;;;;4.47;3.80;;;8.30;99.90;;;9.21;92.99;98978.91;5145163;28;20220;-82
2023/02/20 00:26:17;;;;;;;5.55;4.47;;;8.30;99.90;;;9.27;91.90;98974.34;5140148;28;20266;-82
2023/02/20 00:28:51;;;;;;;5.57;4.47;;;8.30;99.90;;;9.30;91.22;98973.66;5144488;28;20208;-82
2023/02/20 00:31:24;;;;;;;6.03;4.80;;;8.40;99.90;;;9.39;90.14;98964.22;5142192;28;20251;-82
2023/02/20 00:33:57;;;;;;;5.63;4.70;;;8.50;99.90;;;9.30;90.67;98974.59;5145629;28;20204;-82
2023/02/20 00:36:30;;;;;;;7.65;4.85;;;8.50;99.90;;;9.32;90.58;98978.13;5146148;28;20207;-82
2023/02/20 00:39:04;;;;;;;6.05;4.70;;;8.40;99.90;;;9.41;90.74;98986.53;5145726;28;20204;-81
2023/02/20 00:41:37;;;;;;;6.07;5.40;;;8.40;99.90;;;9.38;89.92;98988.81;5140338;28;20239;-81
2023/02/20 00:44:11;;;;;;;6.47;4.97;;;8.50;99.90;;;9.30;89.42;98989.88;5144745;28;20286;-83
2023/02/20 00:46:45;;;;;;;8.43;5.50;;;8.50;99.90;;;9.38;89.64;98999.00;5143224;28;20227;-83
2023/02/20 00:49:18;;;;;;;7.70;5.15;;;8.50;99.90;;;9.29;90.84;98998.28;5142091;28;20637;-83
2023/02/20 00:51:51;;;;;;;5.65;4.85;;;8.50;99.90;;;9.38;90.02;99008.34;5144291;28;20563;-82
2023/02/20 00:54:24;;;;;;;6.28;4.90;;;8.50;99.90;;;9.29;90.28;99011.03;5145481;28;20247;-82
2023/02/20 00:56:58;;;;;;;6.28;5.13;;;8.40;99.90;;;9.26;90.49;99013.34;5144218;28;20200;-82
2023/02/20 00:59:32;;;;;;;5.38;4.82;;;8.40;99.90;;;9.36;89.96;99012.44;5146046;28;20228;-83
2023/02/20 01:02:05;;;;;;;7.72;5.57;;;8.50;99.90;;;9.25;90.92;99014.13;5144797;28;20767;-83
2023/02/20 01:04:39;;;;;;;6.00;4.78;;;8.40;99.90;;;9.29;91.30;99000.84;5139983;28;20219;-82
2023/02/20 01:07:12;;;;;;;7.13;4.55;;;8.40;99.90;;;9.16;92.41;99003.19;5138816;28;20286;-82
2023/02/20 01:09:45;;;;;;;6.40;4.68;;;8.30;99.90;;;9.23;91.58;98996.13;5139734;28;20279;-84
2023/02/20 01:12:18;;;;;;;6.82;5.28;;;8.30;99.90;;;9.16;91.83;98995.53;5144812;28;20632;-82
2023/02/20 01:14:52;;;;;;;7.05;5.47;;;8.30;99.90;;;9.21;91.72;98994.22;5144649;28;20697;-82
2023/02/20 01:17:25;;;;;;;7.55;4.80;;;8.30;99.90;;;9.09;91.47;98989.03;5144024;28;20640;-83
2023/02/20 01:19:59;;;;;;;6.18;5.03;;;8.30;99.90;;;9.12;91.86;98985.84;5148017;28;21039;-83
2023/02/20 01:22:32;;;;;;;7.17;5.20;;;8.20;99.90;;;9.16;91.11;98993.00;5144837;28;20223;-82
2023/02/20 01:25:06;;;;;;;6.93;5.03;;;8.20;99.90;;;9.10;91.33;98988.28;5143861;28;20303;-83
2023/02/20 01:27:39;;;;;;;5.53;4.57;;;8.20;99.90;;;9.02;91.15;98982.56;5140974;28;20295;-82
2023/02/20 01:30:14;;;;;;;6.13;4.95;;;8.20;99.90;;;8.94;93.10;98983.59;5138977;28;20287;-83
2023/02/20 01:32:48;;;;;;;5.72;4.70;;;8.10;99.90;;;8.88;92.95;98977.09;5136678;28;20681;-82
2023/02/20 01:35:21;;;;;;;4.97;4.45;;;8.10;99.90;;;8.82;92.47;98979.16;5144150;28;20246;-81
2023/02/20 01:37:54;;;;;;;6.43;4.47;;;8.00;99.90;;;8.78;92.28;98985.63;5142753;28;20227;-82
2023/02/20 01:40:28;;;;;;;5.23;4.40;;;8.00;99.90;;;8.71;93.03;98980.81;5143856;28;20208;-82
2023/02/20 01:43:02;;;;;;;5.65;4.70;;;7.90;99.90;;;8.59;93.06;98982.38;5147531;28;20234;-81
2023/02/20 01:45:39;;;;;;;4.97;4.43;;;7.80;99.90;;;8.50;93.94;98982.50;5142659;28;20224;-82
2023/02/20 01:48:21;;;;;;;6.33;4.63;;;7.70;99.90;;;8.40;93.86;98977.38;5143445;28;20558;-82
2023/02/20 01:50:59;;;;;;;5.27;4.77;;;7.60;99.90;;;8.32;94.82;98987.78;5142875;28;20228;-82
2023/02/20 01:53:33;;;;;;;6.20;4.73;;;7.60;99.90;;;8.26;95.08;98982.16;5142453;28;20594;-82
2023/02/20 01:56:10;;;;;;;4.70;4.30;;;7.50;99.90;;;8.22;95.55;98977.59;5140621;28;20306;-82
2023/02/20 01:58:47;;;;;;;5.57;5.07;;;7.50;99.90;;;8.17;96.11;98983.06;5141910;28;20203;-83
2023/02/20 02:01:21;;;;;;;4.53;4.10;;;7.40;99.90;;;8.07;96.01;98984.84;5144527;28;20620;-82
2023/02/20 02:04:01;;;;;;;4.70;4.30;;;7.40;99.90;;;8.03;96.27;98984.44;5139314;28;20227;-81
2023/02/20 02:06:39;;;;;;;5.30;4.37;;;7.30;99.90;;;7.95;96.10;98978.69;5138307;28;20211;-83
2023/02/20 02:09:21;;;;;;;6.27;4.33;;;7.20;99.90;;;7.88;97.34;98976.38;5137836;28;20230;-82
2023/02/20 02:11:54;;;;;;;5.13;4.60;;;7.20;99.90;;;7.81;97.14;98959.72;5144582;28;20204;-81
2023/02/20 02:14:27;;;;;;;8.33;4.87;;;7.10;99.90;;;7.75;97.32;98963.38;5141233;28;20275;-82
2023/02/20 02:17:43;;;;;;;5.27;4.63;;;7.00;99.90;;;7.65;97.68;98957.50;5143344;28;20204;-82
2023/02/20 02:21:03;;;;;;;8.73;4.50;;;6.90;99.90;;;7.54;97.74;98958.22;5140808;28;20569;-81
2023/02/20 02:24:38;;;;;;;7.07;5.03;;;6.80;99.90;;;7.43;97.48;98954.75;5139997;28;20294;-83
2023/02/20 02:28:22;;;;;;;11.60;8.63;;;6.70;99.90;;;7.40;97.57;98946.84;5142265;28;20230;-82
2023/02/20 02:31:28;;;;;;;6.40;5.80;;;6.70;99.90;;;7.33;97.26;98953.84;5141310;28;20234;-82
2023/02/20 02:34:52;;;;;;;6.87;5.30;;;6.60;99.90;;;7.19;98.17;98953.50;5139193;28;20698;-82
2023/02/20 02:37:30;;;;;;;4.73;4.33;;;6.50;99.90;;;7.15;98.37;98948.94;5058795;29;20203;-82
2023/02/20 02:40:11;;;;;;;5.77;4.90;;;6.40;99.90;;;7.10;98.31;98951.81;5140947;28;20251;-81
2023/02/20 02:42:52;;;;;;;5.53;4.90;;;6.40;99.90;;;7.05;98.83;98948.84;5144959;28;20250;-81
2023/02/20 02:45:34;;;;;;;6.73;5.10;;;6.30;99.90;;;7.04;99.29;98952.16;5146524;28;20234;-83
2023/02/20 02:48:14;;;;;;;5.30;4.77;;;6.30;99.90;;;7.00;99.25;98955.19;5145346;28;20200;-82
2023/02/20 02:50:49;;;;;;;6.70;4.93;;;6.30;99.90;;;6.98;99.24;98954.13;5146574;28;20200;-82
2023/02/20 02:53:23;;;;;;;6.27;4.77;;;6.30;99.90;;;6.92;99.41;98963.78;5146244;28;20227;-81
2023/02/20 02:56:20;;;;;;;5.63;5.13;;;6.20;99.90;;;6.80;99.66;98966.13;5141314;28;20224;-82
2023/02/20 02:58:55;;;;;;;7.90;5.30;;;6.10;99.90;;;6.80;98.82;98965.22;5142878;28;20204;-82
2023/02/20 03:01:30;;;;;;;5.63;4.90;;;6.10;99.90;;;6.77;99.24;98956.56;5145769;28;20257;-83
2023/02/20 03:04:07;;;;;;;5.73;5.13;;;6.10;99.90;;;6.79;100.00;98953.28;5145238;28;20216;-83
2023/02/20 03:06:44;;;;;;;7.43;5.17;;;6.10;99.90;;;6.79;100.00;98963.44;5140480;28;20200;-81
2023/02/20 03:09:24;;;;;;;6.33;4.50;;;6.10;99.90;;;6.79;99.60;98955.84;5138910;28;20291;-82
2023/02/20 03:12:01;;;;;;;6.93;4.83;;;6.10;99.90;;;6.74;100.00;98960.50;5146462;28;20202;-82
2023/02/20 03:17:38;;;;;;;5.77;5.27;;;6.00;99.90;;;6.72;100.00;98952.75;5145348;28;20299;-82
2023/02/20 03:20:16;;;;;;;7.80;4.80;;;6.10;99.90;;;6.79;100.00;98955.84;5142846;28;20227;-83
2023/02/20 03:22:53;;;;;;;5.80;5.30;;;6.10;99.90;;;6.80;100.00;98955.94;5145401;28;20287;-84
2023/02/20 03:25:31;;;;;;;6.90;4.73;;;6.10;99.90;;;6.80;100.00;98949.97;5140955;28;20307;-82
2023/02/20 03:28:10;;;;;;;5.53;5.03;;;6.10;99.90;;;6.78;100.00;98952.38;5144387;28;20200;-82
2023/02/20 03:30:50;;;;;;;5.30;4.70;;;6.10;99.90;;;6.84;100.00;98949.47;5139526;28;20749;-82
2023/02/20 03:45:10;;;;;;;6.33;4.73;;;6.30;99.90;;;6.99;100.00;98964.47;5144621;28;20310;-81
2023/02/20 03:47:48;;;;;;;6.57;5.07;;;6.30;99.90;;;7.06;100.00;98954.81;5140600;28;20274;-83
2023/02/20 03:53:12;;;;;;;6.63;4.50;;;6.40;99.90;;;7.05;100.00;98964.09;5143192;28;20227;-82
2023/02/20 03:55:47;;;;;;;5.97;4.57;;;6.40;99.90;;;7.05;100.00;98966.66;5144167;28;20705;-81
2023/02/20 03:58:25;;;;;;;7.60;5.40;;;6.40;99.90;;;7.08;100.00;98964.38;5143444;28;21041;-82
2023/02/20 04:01:00;;;;;;;4.47;4.07;;;6.40;99.90;;;7.16;100.00;98960.88;5142281;28;20231;-82
2023/02/20 04:03:39;;;;;;;5.27;4.57;;;6.50;99.90;;;7.28;100.00;98962.69;5136271;28;20378;-82
2023/02/20 04:06:14;;;;;;;5.67;4.37;;;6.50;99.90;;;7.32;100.00;98959.66;5139913;28;20226;-82
2023/02/20 04:08:55;;;;;;;5.47;4.97;;;6.50;99.90;;;7.27;100.00;98951.66;5144442;28;20659;-82
2023/02/20 04:11:33;;;;;;;7.47;5.17;;;6.50;99.90;;;7.24;100.00;98951.38;5137774;28;20223;-81
2023/02/20 04:14:08;;;;;;;5.90;5.23;;;6.50;99.90;;;7.27;99.87;98946.56;5137912;28;20219;-82
2023/02/20 04:16:49;;;;;;;6.27;4.80;;;6.50;99.90;;;7.25;99.81;98959.91;5142316;28;20242;-82
2023/02/20 04:19:22;;;;;;;5.93;4.83;;;6.50;99.90;;;7.21;100.00;98952.00;5144266;28;20200;-81
2023/02/20 04:21:59;;;;;;;4.93;4.50;;;6.50;99.90;;;7.20;100.00;98952.72;5143044;28;20302;-81
2023/02/20 04:24:37;;;;;;;7.40;4.73;;;6.50;99.90;;;7.17;100.00;98949.94;5144298;28;20227;-81
2023/02/20 04:27:11;;;;;;;4.57;4.13;;;6.50;99.90;;;7.19;100.00;98950.06;5142389;28;20673;-81
2023/02/20 04:29:45;;;;;;;6.57;5.40;;;6.50;99.90;;;7.28;100.00;98937.28;5141112;28;20291;-80
2023/02/20 04:32:19;;;;;;;5.97;4.87;;;6.60;99.90;;;7.32;100.00;98936.75;5144702;28;20204;-81
2023/02/20 04:34:52;;;;;;;6.53;5.37;;;6.60;99.90;;;7.42;100.00;98940.25;5143036;28;20224;-81
2023/02/20 04:37:25;;;;;;;6.30;4.93;;;6.70;99.90;;;7.37;100.00;98943.16;5144947;28;20200;-81
2023/02/20 04:39:58;;;;;;;7.47;5.13;;;6.60;99.90;;;7.32;100.00;98929.13;5141945;28;20204;-81
2023/02/20 04:42:31;;;;;;;5.80;4.37;;;6.60;99.90;;;7.28;100.00;98933.06;5144629;28;20200;-82
2023/02/20 04:45:07;;;;;;;5.80;4.47;;;6.60;99.90;;;7.33;100.00;98928.41;5144031;28;20310;-82
2023/02/20 04:47:40;;;;;;;6.23;5.07;;;6.70;99.90;;;7.56;98.37;98931.28;5145379;28;20196;-83
2023/02/20 04:50:20;;;;;;;7.07;5.30;;;6.80;99.90;;;7.42;98.57;98939.38;5143586;28;20291;-82
2023/02/20 04:52:54;;;;;;;8.67;5.50;;;6.70;99.90;;;7.38;99.64;98934.75;5145473;28;20270;-82
2023/02/20 04:55:27;;;;;;;6.20;4.73;;;6.70;99.90;;;7.43;98.72;98939.47;5143223;28;20353;-82
2023/02/20 04:58:00;;;;;;;5.83;4.57;;;6.80;99.90;;;7.45;98.52;98934.53;5145426;28;20208;-82
2023/02/20 05:00:35;;;;;;;6.00;4.73;;;6.80;99.90;;;7.47;97.72;98942.28;5137084;28;20234;-79
2023/02/20 05:03:08;;;;;;;6.17;5.23;;;6.80;99.90;;;7.38;98.16;98944.94;5143218;28;20203;-81
2023/02/20 05:05:41;;;;;;;8.40;5.20;;;6.70;99.90;;;7.30;98.32;98945.94;5141022;28;20275;-80
2023/02/20 05:08:14;;;;;;;5.87;4.93;;;6.70;99.90;;;7.26;98.22;98954.03;5142009;28;20204;-82
2023/02/20 05:10:47;;;;;;;5.60;5.10;;;6.60;99.90;;;7.17;97.65;98949.94;5141573;28;20290;-82
2023/02/20 05:13:21;;;;;;;6.93;5.13;;;6.50;99.90;;;7.15;98.13;98948.94;5143532;28;20211;-82
2023/02/20 05:15:55;;;;;;;6.30;4.93;;;6.50;99.90;;;7.11;98.19;98945.97;5143966;28;20404;-83
2023/02/20 05:18:30;;;;;;;6.83;5.10;;;6.40;99.90;;;7.11;98.46;98948.50;5140068;28;20209;-81
2023/02/20 05:23:54;;;;;;;5.50;4.50;;;6.30;99.90;;;6.97;98.52;98955.78;5139628;28;20283;-81
2023/02/20 05:26:27;;;;;;;5.93;5.03;;;6.30;99.90;;;6.97;99.21;98955.78;5138289;28;20283;-81
2023/02/20 05:29:00;;;;;;;5.13;4.73;;;6.30;99.90;;;6.90;98.69;98961.09;5144215;28;20283;-82
2023/02/20 05:31:35;;;;;;;5.80;4.77;;;6.30;99.90;;;6.85;98.43;98957.25;5143296;28;20291;-81
2023/02/20 05:34:09;;;;;;;8.23;5.43;;;6.20;99.90;;;6.84;98.28;98964.72;5143182;28;20207;-82
2023/02/20 05:36:42;;;;;;;6.40;5.27;;;6.20;99.90;;;6.84;98.87;98959.66;5144235;28;20214;-81
2023/02/20 05:39:15;;;;;;;6.53;5.07;;;6.20;99.90;;;6.87;98.46;98948.13;5140253;28;20239;-81
2023/02/20 05:41:48;;;;;;;6.17;4.97;;;6.20;99.90;;;6.89;98.86;98945.72;5142842;28;20266;-82
2023/02/20 05:44:21;;;;;;;8.33;5.13;;;6.20;99.90;;;6.83;98.74;98952.78;5146464;28;20278;-82
2023/02/20 05:46:56;;;;;;;7.23;5.63;;;6.20;99.90;;;6.76;98.74;98949.72;5143518;28;20228;-81
2023/02/20 05:49:29;;;;;;;6.00;5.40;;;6.20;99.90;;;6.73;98.74;98951.97;5143575;28;20294;-82
2023/02/20 05:52:08;;;;;;;6.33;5.47;;;6.10;99.90;;;6.71;98.37;98953.47;5142253;28;20269;-82
2023/02/20 05:54:42;;;;;;;6.27;5.30;;;6.10;99.90;;;6.66;98.99;98952.16;5142961;28;20247;-82
2023/02/20 05:57:16;;;;;;;8.27;6.80;;;6.00;99.90;;;6.65;99.13;98960.56;5135258;28;20208;-81
2023/02/20 05:59:49;;;;;;;8.07;6.47;;;6.00;99.90;;;6.67;99.43;98961.59;5142416;28;20906;-81
2023/02/20 06:02:23;;;;;;;8.07;6.30;;;6.10;99.90;;;6.66;98.69;98961.44;5144413;28;20255;-82
2023/02/20 06:04:56;;;;;;;7.80;6.00;;;6.00;99.90;;;6.59;99.09;98957.47;5143993;28;20261;-81
2023/02/20 06:07:29;;;;;;;7.53;6.00;;;5.90;99.90;;;6.58;99.66;98957.31;5145209;28;20202;-81
2023/02/20 06:10:03;;;;;;;9.00;5.80;;;5.90;99.90;;;6.52;99.51;98952.56;5138419;28;20210;-82
2023/02/20 06:12:36;;;;;;;6.23;5.30;;;5.90;99.90;;;6.49;99.33;98943.03;5143253;28;20214;-82
2023/02/20 06:15:10;;;;;;;9.23;6.43;;;5.80;99.90;;;6.47;98.80;98958.91;5144280;28;21007;-84
2023/02/20 06:17:44;;;;;;;9.00;7.00;;;5.80;99.90;;;6.45;99.45;98966.38;5138805;28;20251;-84
2023/02/20 06:20:19;;;;;;;6.17;5.67;;;5.80;99.90;;;6.48;99.68;98983.53;5141576;28;20277;-85
2023/02/20 06:22:52;;;;;;;5.83;5.23;;;5.80;99.90;;;6.47;99.14;98976.69;5143285;28;20207;-84
2023/02/20 06:25:26;;;;;;;6.20;5.70;;;5.80;99.90;;;6.46;98.78;98972.34;5145063;28;20223;-84
2023/02/20 06:27:59;;;;;;;8.53;6.23;;;5.80;99.90;;;6.42;99.00;98968.63;5145441;28;20582;-83
2023/02/20 06:30:32;;;;;;;7.63;5.77;;;5.80;99.90;;;6.44;99.31;98973.84;5141904;28;20204;-85
2023/02/20 06:33:07;;;;;;;7.53;6.23;;;5.80;99.90;;;6.46;99.39;98963.06;5148353;28;20278;-84
2023/02/20 06:35:40;;;;;;;8.57;6.17;;;5.80;99.90;;;6.49;100.00;98972.63;5148840;28;20215;-84
2023/02/20 06:38:13;;;;;;;7.63;5.17;;;5.80;99.90;;;6.46;99.65;98977.41;5143032;28;20228;-86
2023/02/20 06:40:47;;;;;;;8.10;6.13;;;5.80;99.90;;;6.51;98.99;98977.09;5145871;28;20652;-85
2023/02/20 06:43:20;;;;;;;6.67;5.57;;;5.80;99.90;;;6.53;98.86;98964.53;5147399;28;20196;-86
2023/02/20 06:45:53;;;;;;;8.03;5.30;;;5.90;99.90;;;6.51;99.46;98960.97;5146811;28;20315;-85
2023/02/20 06:48:28;;;;;;;8.20;6.10;;;5.90;99.90;;;6.76;97.95;98971.69;5142544;28;20200;-83
2023/02/20 06:51:01;;;;;;;7.10;5.70;;;6.00;99.90;;;6.74;97.42;98970.66;5146075;28;20211;-84
2023/02/20 06:53:37;;;;;;;8.13;5.73;;;6.10;99.90;;;6.70;97.41;98979.66;5144314;28;20768;-87
2023/02/20 06:56:17;;;;;;;6.97;5.67;;;6.00;99.90;;;6.76;98.33;98985.28;5141608;28;20295;-85
2023/02/20 06:58:53;;;;;;;5.93;5.33;;;6.10;99.90;;;6.80;97.92;98986.44;5141829;28;20295;-85
2023/02/20 07:01:28;;;;;;;6.97;5.73;;;6.20;99.90;;;6.98;98.28;98987.19;5146493;28;20203;-84
2023/02/20 07:04:03;;;;;;;7.10;5.90;;;6.30;99.90;;;7.15;97.53;98991.22;5146639;28;20290;-87
2023/02/20 07:06:36;;;;;;;5.40;4.90;;;6.50;99.90;;;7.31;97.21;98993.47;5146297;28;20247;-84
2023/02/20 07:09:10;;;;;;;6.60;5.07;;;6.60;99.90;;;7.45;95.88;98987.94;5142308;28;20204;-83
2023/02/20 07:11:43;;;;;;;7.47;5.30;;;6.80;99.90;;;7.72;95.41;98988.56;5141255;28;20211;-84
2023/02/20 07:14:17;;;;;;;8.33;5.53;;;7.00;99.90;;;8.02;93.24;98987.75;5139673;28;20270;-84
2023/02/20 07:16:50;;;;;;;7.87;4.90;;;7.20;99.90;;;8.36;89.92;98991.50;5144357;28;20210;-84
2023/02/20 07:19:24;;;;;;;6.37;5.67;;;7.50;99.90;;;8.43;90.04;98996.34;5142437;28;20226;-84
2023/02/20 07:21:57;;;;;;;6.57;5.67;;;7.60;99.90;;;8.56;89.00;99001.72;5144629;28;20203;-84
2023/02/20 07:24:31;;;;;;;9.30;5.90;;;7.60;99.90;;;8.59;88.79;98997.66;5143143;28;20216;-83
2023/02/20 07:27:05;;;;;;;6.80;5.80;;;7.70;99.90;;;8.70;88.40;98994.31;5142232;28;20318;-84
2023/02/20 07:29:40;;;;;;;6.60;5.43;;;7.80;99.90;;;8.81;88.07;98998.63;5146683;28;20200;-83
2023/02/20 07:32:13;;;;;;;5.93;4.73;;;7.90;99.90;;;9.13;86.33;98991.06;5153100;28;20200;-85
2023/02/20 07:34:48;;;;;;;5.30;4.30;;;8.10;99.90;;;9.31;86.46;98996.75;5150855;28;20227;-83
2023/02/20 07:37:35;;;;;;;6.20;4.70;;;8.50;99.90;;;9.45;85.63;98991.09;5143192;28;20204;-85
2023/02/20 07:40:10;;;;;;;6.73;5.70;;;8.60;99.90;;;9.52;84.91;98991.59;5146543;28;20289;-83
2023/02/20 07:42:43;;;;;;;7.27;5.80;;;8.70;99.90;;;9.59;84.63;98988.75;5147040;28;20207;-84
2023/02/20 07:45:16;;;;;;;5.97;5.47;;;8.70;99.90;;;9.73;83.50;98994.94;5147171;28;20513;-84
2023/02/20 07:47:49;;;;;;;6.40;5.65;;;8.80;99.90;;;9.81;82.75;98981.09;5147711;28;20200;-83
2023/02/20 07:50:23;;;;;;;5.80;4.78;;;9.00;99.90;;;9.91;82.35;98979.38;5147159;28;20554;-83
2023/02/20 07:52:56;;;;;;;6.30;4.70;;;9.10;99.90;;;10.15;80.49;98979.50;5148255;28;20250;-84
2023/02/20 07:55:29;;;;;;;7.43;5.38;;;9.30;99.90;;;10.33;80.82;98980.03;5145964;28;20251;-83
2023/02/20 07:58:02;;;;;;;5.90;5.15;;;9.40;99.90;;;10.36;79.77;98985.41;5146540;28;20227;-86
2023/02/20 08:00:36;;;;;;;6.30;4.88;;;9.50;99.90;;;10.51;79.18;98981.44;5144736;28;20785;-85
2023/02/20 08:03:09;;;;;;;5.60;4.13;;;9.60;99.90;;;10.78;77.76;98985.16;5145045;28;20196;-84
2023/02/20 08:05:44;;;;;;;6.85;4.07;;;9.80;99.90;;;10.93;74.11;98980.31;5145813;28;20283;-84
2023/02/20 08:08:23;;;;;;;5.40;4.20;;;10.10;99.90;;;11.12;74.06;98969.72;5146479;28;20232;-85
2023/02/20 08:10:56;;;;;;;5.38;3.85;;;10.30;99.90;;;11.22;72.21;98972.19;5146327;28;20231;-84
2023/02/20 08:13:43;;;;;;;8.77;4.22;;;10.40;99.90;;;11.29;69.93;98958.16;5145633;28;20208;-84
2023/02/20 08:16:16;;;;;;;5.20;3.88;;;10.60;99.90;;;11.30;70.14;98953.94;5145771;28;20774;-85
2023/02/20 08:18:49;;;;;;;3.95;3.58;;;10.70;99.90;;;11.49;69.19;98952.78;5146596;28;20254;-84
2023/02/20 08:21:24;;;;;;;6.22;4.13;;;10.80;99.90;;;11.60;68.29;98958.69;5145519;28;20235;-84
2023/02/20 08:23:57;;;;;;;5.65;3.88;;;11.00;99.90;;;11.67;69.01;98955.75;5143032;28;20738;-86
2023/02/20 08:26:30;;;;;;;5.60;3.70;;;11.00;99.90;;;11.75;68.65;98956.31;5143309;28;20280;-85
2023/02/20 08:29:03;;;;;;;4.45;3.83;;;11.10;99.90;;;11.82;68.45;98955.97;5145436;28;20240;-85
2023/02/20 08:31:37;;;;;;;5.22;3.60;;;11.20;99.90;;;11.95;67.05;98955.16;5147231;28;20204;-85
2023/02/20 08:34:10;;;;;;;5.32;3.97;;;11.30;99.90;;;12.09;66.11;98957.00;5146945;28;20259;-83
2023/02/20 08:36:45;;;;;;;5.00;4.05;;;11.40;99.90;;;12.07;65.60;98955.13;5143657;28;20197;-85
2023/02/20 08:39:18;;;;;;;3.97;3.30;;;11.40;99.90;;;12.10;65.29;98943.44;5145646;28;20286;-84
2023/02/20 08:41:51;;;;;;;4.57;3.55;;;11.40;99.90;;;12.21;63.87;98954.38;5147577;28;20244;-84
2023/02/20 08:44:24;;;;;;;3.58;3.25;;;11.50;99.90;;;12.09;65.82;98944.19;5149382;28;20331;-82
2023/02/20 08:46:57;;;;;;;3.80;3.47;;;11.40;99.90;;;12.14;64.07;98953.09;5149895;28;20259;-83
2023/02/20 08:49:30;;;;;;;4.78;3.83;;;11.60;99.90;;;12.24;64.80;98949.47;5148019;28;20602;-83
2023/02/20 08:52:05;;;;;;;5.18;3.63;;;11.60;99.90;;;12.42;64.96;98954.06;5145936;28;20204;-84
2023/02/20 08:54:38;;;;;;;5.15;3.72;;;11.70;99.90;;;12.63;64.63;98947.81;5148895;28;20228;-84
2023/02/20 08:57:11;;;;;;;3.83;3.53;;;11.90;99.90;;;12.54;63.42;98937.84;5149236;28;20649;-84
2023/02/20 08:59:45;;;;;;;4.15;3.67;;;11.90;99.90;;;12.59;63.50;98933.91;5147499;28;20251;-84
2023/02/20 09:02:21;;;;;;;5.10;3.70;;;11.90;99.90;;;12.69;63.14;98926.81;5146790;28;20243;-84
2023/02/20 09:04:54;;;;;;;5.55;3.50;;;12.00;99.90;;;12.82;62.99;98924.28;5144714;28;20241;-84
2023/02/20 09:07:29;;;;;;;4.25;3.65;;;12.00;99.90;;;12.87;62.58;98928.00;5149612;28;20224;-84
2023/02/20 09:10:02;;;;;;;5.90;4.35;;;12.10;99.90;;;12.90;62.32;98924.75;5148553;28;20282;-85
2023/02/20 09:12:35;;;;;;;5.90;3.40;;;12.20;99.90;;;12.97;61.60;98921.81;5147493;28;20207;-84
2023/02/20 09:15:09;;;;;;;5.10;4.00;;;12.30;99.90;;;13.10;61.53;98923.47;5148987;28;20224;-84
2023/02/20 09:17:42;;;;;;;5.25;3.88;;;12.40;99.90;;;13.15;60.94;98917.84;5148277;28;20224;-84
2023/02/20 09:20:16;;;;;;;6.13;3.92;;;12.50;99.90;;;13.21;58.61;98914.78;5148111;28;20200;-84
2023/02/20 09:22:51;;;;;;;5.38;3.17;;;12.70;99.90;;;13.20;59.84;98910.47;5150197;28;20234;-84
2023/02/20 09:25:24;;;;;;;5.43;3.53;;;12.70;99.90;;;13.20;60.36;98910.47;5150305;28;20226;-84
2023/02/20 09:27:57;;;;;;;6.82;3.63;;;12.70;99.90;;;13.18;58.76;98901.75;5151354;28;20263;-84
2023/02/20 09:30:31;;;;;;;3.92;3.28;;;12.70;99.90;;;13.26;60.15;98900.59;5150222;28;20204;-85
2023/02/20 09:33:04;;;;;;;5.03;3.40;;;12.70;99.90;;;13.45;59.48;98900.97;5148830;28;20214;-84
2023/02/20 09:35:37;;;;;;;4.80;3.42;;;12.90;99.90;;;13.50;58.15;98896.97;5152200;28;20259;-84
2023/02/20 09:38:11;;;;;;;5.05;3.40;;;13.00;99.90;;;13.46;56.53;98899.28;5151305;28;20212;-84
2023/02/20 09:40:46;;;;;;;5.38;3.25;;;12.90;99.90;;;13.42;57.96;98897.31;5154153;28;20291;-84
2023/02/20 09:43:38;;;;;;;3.50;3.20;;;12.80;99.90;;;13.59;57.13;98893.22;5151245;28;20211;-84
2023/02/20 09:46:15;;;;;;;3.28;2.97;;;12.90;99.90;;;13.75;57.94;98883.09;5152540;28;20220;-84
2023/02/20 09:49:03;;;;;;;4.07;3.40;;;13.10;99.90;;;13.92;55.77;98884.13;5150244;28;20203;-85
2023/02/20 09:51:43;;;;;;;4.80;3.35;;;13.30;99.90;;;14.01;56.54;98870.94;5151831;28;20203;-85
2023/02/20 09:54:24;;;;;;;6.22;3.33;;;13.40;99.90;;;14.08;57.03;98883.34;5151064;28;20238;-85
2023/02/20 09:57:02;;;;;;;4.40;3.15;;;13.40;99.90;;;13.98;55.65;98872.53;5149053;28;20204;-85
2023/02/20 09:59:40;;;;;;;6.10;3.20;;;13.30;99.90;;;14.11;56.82;98873.28;5151567;28;20270;-84
2023/02/20 10:02:18;;;;;;;4.80;2.85;;;13.40;99.90;;;14.04;55.13;98869.44;5147731;28;20215;-83
2023/02/20 10:04:54;;;;;;;3.35;2.75;;;13.30;99.90;;;14.02;55.59;98863.34;5149422;28;20246;-84
2023/02/20 10:07:43;;;;;;;3.78;2.50;;;13.20;99.90;;;14.01;57.36;98876.06;5147241;28;20230;-85
2023/02/20 10:10:23;;;;;;;3.75;2.80;;;13.30;99.90;;;14.12;54.81;98875.03;5145831;28;20271;-84
2023/02/20 10:13:08;;;;;;;3.95;2.58;;;13.40;99.90;;;14.19;55.43;98867.78;5153282;28;20203;-84
2023/02/20 10:15:52;;;;;;;3.95;2.63;;;13.40;99.90;;;14.17;55.34;98861.66;5147145;28;20239;-84
2023/02/20 10:18:34;;;;;;;3.25;2.72;;;13.40;99.90;;;14.18;55.04;98865.13;5151658;28;20199;-83
2023/02/20 10:21:16;;;;;;;6.20;3.03;;;13.50;99.90;;;14.23;54.66;98853.41;5149350;28;20204;-85
2023/02/20 10:23:52;;;;;;;5.32;3.15;;;13.50;99.90;;;14.34;54.03;98844.66;5151904;28;20200;-84
2023/02/20 10:26:46;;;;;;;2.95;2.63;;;13.50;99.90;;;14.31;54.78;98844.47;5144923;28;20210;-83
2023/02/20 10:29:25;;;;;;;5.70;3.15;;;13.50;99.90;;;14.30;53.71;98841.78;5152530;28;20673;-85
2023/02/20 10:32:03;;;;;;;4.25;3.30;;;13.50;99.90;;;14.30;54.33;98852.97;5150808;28;20237;-85
2023/02/20 10:34:50;;;;;;;3.88;3.38;;;13.70;99.90;;;14.31;54.26;98856.44;5152706;28;20243;-86
2023/02/20 10:37:33;;;;;;;3.95;2.88;;;13.60;99.90;;;14.28;54.95;98853.66;5150536;28;20227;-85
2023/02/20 10:40:25;;;;;;;4.93;3.03;;;13.40;99.90;;;14.07;54.54;98845.59;5151095;28;20235;-85
2023/02/20 10:43:05;;;;;;;5.50;3.13;;;13.40;99.90;;;13.82;53.88;98853.50;5149089;28;20672;-82
2023/02/20 10:45:49;;;;;;;3.65;3.00;;;13.20;99.90;;;13.68;56.00;98855.28;5146312;28;20252;-83
2023/02/20 10:48:26;;;;;;;5.90;3.00;;;13.10;99.90;;;13.84;55.85;98849.34;5148382;28;20262;-84
2023/02/20 10:51:08;;;;;;;3.38;2.60;;;13.20;99.90;;;14.01;55.58;98846.13;5144642;28;22523;-83
2023/02/20 10:53:48;;;;;;;3.05;2.75;;;13.30;99.90;;;14.11;55.54;98839.84;5146609;28;20200;-83
2023/02/20 10:56:30;;;;;;;4.05;2.78;;;13.40;99.90;;;14.14;55.07;98832.31;5144032;28;20243;-83
2023/02/20 10:59:10;;;;;;;4.43;3.05;;;13.50;99.90;;;14.25;53.69;98843.19;5142635;28;20291;-83
2023/02/20 11:01:45;;;;;;;4.60;3.00;;;13.50;99.90;;;14.30;54.83;98840.09;5142844;28;20196;-84
2023/02/20 11:04:23;;;;;;;3.80;2.88;;;13.60;99.90;;;14.06;54.52;98839.56;5147245;28;20242;-83
2023/02/20 11:07:00;;;;;;;4.05;2.97;;;13.50;99.90;;;14.08;55.04;98837.06;5146779;28;20199;-84
2023/02/20 11:09:34;;;;;;;4.35;3.20;;;13.40;99.90;;;14.08;55.03;98819.06;5148855;28;20729;-81
2023/02/20 11:12:20;;;;;;;3.63;2.60;;;13.50;99.90;;;14.18;55.15;98816.25;5155142;28;20204;-83
2023/02/20 11:14:57;;;;;;;4.30;2.88;;;13.50;99.90;;;14.17;56.27;98819.63;5151292;28;20315;-82
2023/02/20 11:17:31;;;;;;;4.32;2.90;;;13.50;99.90;;;14.17;55.15;98819.63;5148031;28;20193;-84
2023/02/20 11:20:08;;;;;;;3.38;2.63;;;13.50;99.90;;;14.30;55.81;98814.38;5150760;28;20203;-83
2023/02/20 11:22:45;;;;;;;6.75;3.00;;;13.60;99.90;;;14.32;54.48;98811.91;5150393;28;20211;-83
2023/02/20 11:25:20;;;;;;;4.70;3.15;;;13.60;99.90;;;14.51;54.29;98807.03;5148661;28;21412;-83
2023/02/20 11:27:58;;;;;;;4.10;3.03;;;13.80;99.90;;;14.46;54.72;98805.88;5146102;28;20212;-83